createdAt,value
2017-08-29T00:00:29.519Z,15.10
2017-08-29T00:02:57.131Z,16.00
2017-08-29T00:05:24.749Z,18.83
2017-08-29T00:07:52.350Z,16.70
2017-08-29T00:10:19.936Z,16.53
2017-08-29T00:12:47.565Z,17.43
2017-08-29T00:15:15.192Z,18.00
2017-08-29T00:17:43.212Z,18.20
2017-08-29T00:20:10.835Z,18.20
2017-08-29T00:22:38.436Z,17.50
2017-08-29T00:25:06.053Z,17.00
2017-08-29T00:27:33.631Z,17.47
2017-08-29T00:30:01.249Z,16.43
2017-08-29T00:32:28.914Z,17.47
2017-08-29T00:34:56.548Z,17.87
2017-08-29T00:37:24.137Z,17.63
2017-08-29T00:39:52.134Z,18.07
2017-08-29T00:42:19.747Z,18.67
2017-08-29T00:44:47.344Z,18.30
2017-08-29T00:47:15.314Z,17.33
2017-08-29T00:49:42.917Z,17.60
2017-08-29T00:52:10.532Z,19.27
2017-08-29T00:54:38.134Z,19.33
2017-08-29T00:57:05.790Z,19.30
2017-08-29T00:59:33.580Z,19.73
2017-08-29T01:02:01.311Z,18.50
2017-08-29T01:04:28.900Z,19.37
2017-08-29T01:06:57.192Z,19.70
2017-08-29T01:09:25.279Z,18.83
2017-08-29T01:11:52.894Z,19.20
2017-08-29T01:14:20.592Z,18.40
2017-08-29T01:16:48.209Z,19.70
2017-08-29T01:19:15.984Z,20.40
2017-08-29T01:21:43.574Z,19.40
2017-08-29T01:24:11.362Z,19.53
2017-08-29T01:26:38.942Z,21.40
2017-08-29T01:29:06.699Z,19.80
2017-08-29T01:31:34.300Z,20.27
2017-08-29T01:34:01.914Z,21.30
2017-08-29T01:36:29.536Z,20.60
2017-08-29T01:38:57.122Z,20.50
2017-08-29T01:41:24.782Z,20.23
2017-08-29T01:43:52.403Z,20.20
2017-08-29T01:46:20.098Z,20.87
2017-08-29T01:48:47.697Z,20.70
2017-08-29T01:51:15.313Z,20.83
2017-08-29T01:53:42.921Z,20.57
2017-08-29T01:56:10.540Z,19.80
2017-08-29T01:58:38.137Z,21.83
2017-08-29T02:01:06.128Z,21.90
2017-08-29T02:03:33.717Z,20.73
2017-08-29T02:06:01.328Z,20.90
2017-08-29T02:08:28.950Z,20.40
2017-08-29T02:10:56.555Z,21.47
2017-08-29T02:13:24.267Z,21.07
2017-08-29T02:15:51.944Z,21.23
2017-08-29T02:18:19.561Z,20.60
2017-08-29T02:20:47.179Z,21.63
2017-08-29T02:23:14.796Z,21.47
2017-08-29T02:25:42.407Z,22.10
2017-08-29T02:28:10.395Z,21.70
2017-08-29T02:30:37.970Z,19.40
2017-08-29T02:33:05.583Z,20.93
2017-08-29T02:35:33.223Z,19.63
2017-08-29T02:38:01.840Z,22.60
2017-08-29T02:40:29.583Z,20.73
2017-08-29T02:42:57.181Z,21.23
2017-08-29T02:45:24.803Z,21.40
2017-08-29T02:47:52.409Z,22.67
2017-08-29T02:50:20.320Z,22.17
2017-08-29T02:52:47.940Z,23.67
2017-08-29T02:55:15.523Z,23.37
2017-08-29T02:57:43.135Z,23.10
2017-08-29T03:00:10.713Z,23.20
2017-08-29T03:02:44.227Z,24.20
2017-08-29T03:05:11.845Z,24.30
2017-08-29T03:07:39.515Z,22.10
2017-08-29T03:10:07.148Z,23.40
2017-08-29T03:12:34.728Z,22.93
2017-08-29T03:15:02.340Z,22.77
2017-08-29T03:17:30.019Z,23.37
2017-08-29T03:19:57.623Z,23.70
2017-08-29T03:22:25.242Z,23.97
2017-08-29T03:24:52.855Z,23.40
2017-08-29T03:27:20.486Z,22.50
2017-08-29T03:29:48.090Z,22.87
2017-08-29T03:32:15.743Z,22.80
2017-08-29T03:34:43.352Z,25.17
2017-08-29T03:37:10.958Z,23.37
2017-08-29T03:39:38.572Z,24.40
2017-08-29T03:42:06.167Z,22.90
2017-08-29T03:44:33.792Z,26.40
2017-08-29T03:47:01.419Z,23.27
2017-08-29T03:49:29.013Z,23.50
2017-08-29T03:51:56.620Z,24.50
2017-08-29T03:54:24.208Z,24.83
2017-08-29T03:56:51.835Z,23.53
2017-08-29T03:59:19.430Z,24.40
2017-08-29T04:01:47.066Z,25.97
2017-08-29T04:04:14.674Z,24.70
2017-08-29T04:06:42.343Z,26.77
2017-08-29T04:09:10.005Z,24.77
2017-08-29T04:11:37.605Z,25.60
2017-08-29T04:14:05.254Z,26.30
2017-08-29T04:16:33.023Z,28.07
2017-08-29T04:19:00.677Z,26.93
2017-08-29T04:21:28.258Z,27.37
2017-08-29T04:23:55.882Z,27.30
2017-08-29T04:26:23.480Z,26.37
2017-08-29T04:28:51.587Z,26.53
2017-08-29T04:31:19.170Z,26.40
2017-08-29T04:33:46.780Z,28.53
2017-08-29T04:36:14.409Z,26.33
2017-08-29T04:38:42.024Z,27.50
2017-08-29T04:41:09.657Z,26.30
2017-08-29T04:43:37.258Z,27.00
2017-08-29T04:46:04.865Z,27.97
2017-08-29T04:48:32.488Z,28.00
2017-08-29T04:51:00.117Z,28.57
2017-08-29T04:53:27.827Z,30.57
2017-08-29T04:55:55.437Z,29.70
2017-08-29T04:58:23.077Z,30.43
2017-08-29T05:00:50.702Z,31.83
2017-08-29T05:03:18.322Z,31.07
2017-08-29T05:05:45.900Z,32.50
2017-08-29T05:08:13.527Z,35.50
2017-08-29T05:10:41.127Z,37.50
2017-08-29T05:13:08.757Z,35.10
2017-08-29T05:15:36.357Z,35.73
2017-08-29T05:18:03.951Z,34.97
2017-08-29T05:20:31.547Z,34.90
2017-08-29T05:22:59.150Z,35.30
2017-08-29T05:25:26.838Z,33.43
2017-08-29T05:27:54.449Z,30.70
2017-08-29T05:30:22.108Z,27.23
2017-08-29T05:32:49.709Z,26.70
2017-08-29T05:35:17.309Z,24.77
2017-08-29T05:37:44.913Z,24.70
2017-08-29T05:40:13.078Z,21.43
2017-08-29T05:42:40.713Z,21.10
2017-08-29T05:45:08.332Z,22.40
2017-08-29T05:47:35.941Z,22.60
2017-08-29T05:50:03.565Z,22.70
2017-08-29T05:52:31.191Z,22.20
2017-08-29T05:54:58.811Z,20.63
2017-08-29T05:57:26.503Z,20.17
2017-08-29T05:59:54.120Z,19.70
2017-08-29T06:02:21.764Z,19.33
2017-08-29T06:04:49.447Z,19.60
2017-08-29T06:07:17.064Z,19.00
2017-08-29T06:09:44.685Z,19.27
2017-08-29T06:12:12.292Z,17.93
2017-08-29T06:14:39.936Z,18.37
2017-08-29T06:17:07.533Z,18.23
2017-08-29T06:19:35.148Z,16.90
2017-08-29T06:22:02.845Z,17.80
2017-08-29T06:24:30.457Z,18.60
2017-08-29T06:26:58.099Z,18.00
2017-08-29T06:29:25.702Z,17.63
2017-08-29T06:31:53.340Z,17.17
2017-08-29T06:34:20.986Z,17.60
2017-08-29T06:36:48.717Z,16.57
2017-08-29T06:39:16.327Z,16.63
2017-08-29T06:41:44.223Z,14.47
2017-08-29T06:44:11.847Z,14.63
2017-08-29T06:46:39.604Z,15.40
2017-08-29T06:49:07.247Z,14.97
2017-08-29T06:51:34.846Z,14.80
2017-08-29T06:54:08.546Z,15.67
2017-08-29T06:56:36.133Z,14.40
2017-08-29T06:59:03.769Z,16.10
2017-08-29T07:01:31.378Z,16.03
2017-08-29T07:03:59.011Z,16.10
2017-08-29T07:06:26.617Z,16.10
2017-08-29T07:08:54.237Z,14.43
2017-08-29T07:11:21.861Z,14.63
2017-08-29T07:13:49.536Z,14.10
2017-08-29T07:16:17.165Z,14.93
2017-08-29T07:18:44.793Z,13.57
2017-08-29T07:21:12.413Z,16.03
2017-08-29T07:23:40.171Z,15.13
2017-08-29T07:26:07.821Z,15.10
2017-08-29T07:28:35.449Z,13.93
2017-08-29T07:31:03.337Z,15.20
2017-08-29T07:33:30.962Z,14.83
2017-08-29T07:35:58.563Z,13.77
2017-08-29T07:38:26.265Z,14.30
2017-08-29T07:40:54.030Z,20.83
2017-08-29T07:43:21.888Z,15.60
2017-08-29T07:45:49.493Z,13.67
2017-08-29T07:48:17.106Z,14.70
2017-08-29T07:50:44.749Z,15.73
2017-08-29T07:53:12.386Z,14.13
2017-08-29T07:55:39.978Z,14.60
2017-08-29T07:58:07.944Z,14.30
2017-08-29T08:00:35.562Z,13.17
2017-08-29T08:03:03.186Z,13.43
2017-08-29T08:05:30.966Z,14.17
2017-08-29T08:07:58.612Z,14.00
2017-08-29T08:10:26.250Z,13.53
2017-08-29T08:12:53.907Z,12.00
2017-08-29T08:15:21.513Z,13.63
2017-08-29T08:17:49.339Z,12.77
2017-08-29T08:20:16.961Z,13.00
2017-08-29T08:22:44.583Z,13.93
2017-08-29T08:25:12.527Z,13.50
2017-08-29T08:27:40.122Z,13.20
2017-08-29T08:30:07.793Z,14.17
2017-08-29T08:32:35.441Z,13.30
2017-08-29T08:35:03.081Z,13.70
2017-08-29T08:37:30.752Z,14.73
2017-08-29T08:39:58.343Z,13.73
2017-08-29T08:42:26.010Z,13.57
2017-08-29T08:44:53.808Z,14.70
2017-08-29T08:47:21.432Z,14.17
2017-08-29T08:49:49.139Z,14.63
2017-08-29T08:52:17.295Z,13.90
2017-08-29T08:54:44.907Z,15.70
2017-08-29T08:57:12.723Z,15.13
2017-08-29T08:59:40.402Z,15.30
2017-08-29T09:02:08.018Z,15.97
2017-08-29T09:04:35.665Z,15.10
2017-08-29T09:07:03.280Z,14.80
2017-08-29T09:09:30.911Z,15.50
2017-08-29T09:11:58.529Z,15.33
2017-08-29T09:14:26.439Z,18.63
2017-08-29T09:16:54.036Z,17.23
2017-08-29T09:19:21.654Z,15.80
2017-08-29T09:21:49.271Z,16.13
2017-08-29T09:24:16.913Z,17.63
2017-08-29T09:26:44.629Z,17.00
2017-08-29T09:29:12.225Z,15.93
2017-08-29T09:31:39.862Z,15.20
2017-08-29T09:34:07.476Z,15.77
2017-08-29T09:36:35.136Z,14.90
2017-08-29T09:39:02.735Z,15.50
2017-08-29T09:41:30.359Z,16.90
2017-08-29T09:43:57.982Z,15.50
2017-08-29T09:46:26.010Z,16.60
2017-08-29T09:48:53.615Z,16.50
2017-08-29T09:51:21.225Z,16.20
2017-08-29T09:53:48.916Z,14.50
2017-08-29T09:56:16.540Z,14.97
2017-08-29T09:58:44.184Z,15.70
2017-08-29T10:01:11.814Z,15.10
2017-08-29T10:03:39.612Z,15.83
2017-08-29T10:06:07.274Z,16.37
2017-08-29T10:08:34.930Z,16.93
2017-08-29T10:11:02.562Z,14.00
2017-08-29T10:13:30.189Z,14.10
2017-08-29T10:15:57.799Z,14.13
2017-08-29T10:18:25.437Z,15.37
2017-08-29T10:20:53.302Z,13.80
2017-08-29T10:23:20.933Z,13.60
2017-08-29T10:25:48.547Z,14.43
2017-08-29T10:28:16.144Z,14.60
2017-08-29T10:30:43.772Z,14.77
2017-08-29T10:33:11.985Z,14.30
2017-08-29T10:35:39.687Z,14.47
2017-08-29T10:38:07.295Z,12.50
2017-08-29T10:40:34.950Z,13.80
2017-08-29T10:43:02.588Z,14.37
2017-08-29T10:45:30.198Z,14.10
2017-08-29T10:47:57.840Z,12.40
2017-08-29T10:50:25.428Z,12.73
2017-08-29T10:52:53.027Z,11.67
2017-08-29T10:55:20.736Z,8.57
2017-08-29T10:57:48.541Z,9.50
2017-08-29T11:00:16.254Z,9.30
2017-08-29T11:02:43.895Z,9.03
2017-08-29T11:05:11.472Z,7.93
2017-08-29T11:07:39.063Z,8.97
2017-08-29T11:10:06.708Z,7.20
2017-08-29T11:12:34.309Z,6.70
2017-08-29T11:15:01.920Z,7.70
2017-08-29T11:17:29.515Z,8.50
2017-08-29T11:19:57.146Z,9.03
2017-08-29T11:22:24.757Z,8.57
2017-08-29T11:24:52.427Z,8.10
2017-08-29T11:27:20.098Z,9.50
2017-08-29T11:29:47.686Z,7.50
2017-08-29T11:32:15.334Z,7.33
2017-08-29T11:34:42.924Z,7.80
2017-08-29T11:37:10.528Z,6.80
2017-08-29T11:39:38.106Z,8.47
2017-08-29T11:42:05.722Z,7.70
2017-08-29T11:44:33.312Z,8.70
2017-08-29T11:47:00.926Z,7.90
2017-08-29T11:49:28.499Z,7.17
2017-08-29T11:51:56.142Z,7.40
2017-08-29T11:54:23.776Z,8.53
2017-08-29T11:56:51.374Z,7.97
2017-08-29T11:59:19.657Z,7.23
2017-08-29T12:01:47.246Z,6.97
2017-08-29T12:04:15.014Z,7.90
2017-08-29T12:06:42.636Z,8.00
2017-08-29T12:09:10.256Z,6.70
2017-08-29T12:11:37.868Z,6.00
2017-08-29T12:14:05.499Z,7.27
2017-08-29T12:16:33.100Z,7.33
2017-08-29T12:19:00.701Z,6.77
2017-08-29T12:21:28.308Z,7.40
2017-08-29T12:23:55.912Z,6.77
2017-08-29T12:26:23.552Z,6.90
2017-08-29T12:28:51.161Z,7.23
2017-08-29T12:31:18.806Z,7.40
2017-08-29T12:33:46.405Z,7.20
2017-08-29T12:36:14.045Z,7.00
2017-08-29T12:38:41.687Z,8.50
2017-08-29T12:41:09.389Z,7.10
2017-08-29T12:43:36.982Z,6.10
2017-08-29T12:46:04.576Z,5.60
2017-08-29T12:48:32.210Z,5.13
2017-08-29T12:50:59.823Z,5.90
2017-08-29T12:53:27.464Z,4.97
2017-08-29T12:55:55.115Z,5.70
2017-08-29T12:58:22.703Z,5.80
2017-08-29T13:00:50.300Z,5.50
2017-08-29T13:03:18.289Z,5.20
2017-08-29T13:05:45.883Z,5.87
2017-08-29T13:08:13.496Z,5.70
2017-08-29T13:10:41.109Z,5.33
2017-08-29T13:13:08.669Z,4.50
2017-08-29T13:15:36.313Z,4.80
2017-08-29T13:18:03.953Z,4.93
2017-08-29T13:20:31.572Z,4.90
2017-08-29T13:22:59.179Z,4.90
2017-08-29T13:25:26.836Z,5.43
2017-08-29T13:27:54.426Z,5.60
2017-08-29T13:30:22.373Z,5.17
2017-08-29T13:32:50.007Z,4.27
2017-08-29T13:35:17.637Z,4.53
2017-08-29T13:37:45.529Z,4.57
2017-08-29T13:40:13.136Z,4.40
2017-08-29T13:42:40.786Z,4.57
2017-08-29T13:45:08.413Z,4.50
2017-08-29T13:47:36.038Z,4.60
2017-08-29T13:50:03.636Z,4.40
2017-08-29T13:52:31.626Z,4.70
2017-08-29T13:54:59.217Z,4.77
2017-08-29T13:57:26.884Z,4.97
2017-08-29T13:59:54.509Z,4.40
2017-08-29T14:02:22.113Z,4.50
2017-08-29T14:04:49.744Z,4.73
2017-08-29T14:07:17.347Z,4.50
2017-08-29T14:09:45.005Z,4.50
2017-08-29T14:12:12.611Z,4.33
2017-08-29T14:14:40.410Z,4.00
2017-08-29T14:17:08.024Z,4.50
2017-08-29T14:19:36.886Z,4.63
2017-08-29T14:22:04.516Z,4.27
2017-08-29T14:24:32.150Z,3.97
2017-08-29T14:27:00.083Z,4.27
2017-08-29T14:29:27.682Z,4.63
2017-08-29T14:31:55.296Z,4.50
2017-08-29T14:34:22.964Z,4.40
2017-08-29T14:36:50.565Z,3.63
2017-08-29T14:39:18.289Z,3.73
2017-08-29T14:41:45.895Z,3.80
2017-08-29T14:44:13.872Z,3.90
2017-08-29T14:46:53.426Z,4.00
2017-08-29T14:49:21.376Z,4.37
2017-08-29T14:51:48.971Z,4.50
2017-08-29T14:54:16.698Z,3.90
2017-08-29T14:56:44.295Z,4.23
2017-08-29T14:59:11.870Z,4.00
2017-08-29T15:01:39.921Z,4.23
2017-08-29T15:04:07.504Z,3.20
2017-08-29T15:06:35.095Z,3.80
2017-08-29T15:09:02.718Z,3.93
2017-08-29T15:11:30.301Z,3.90
2017-08-29T15:13:57.977Z,3.80
2017-08-29T15:16:25.686Z,3.80
2017-08-29T15:18:53.307Z,4.10
2017-08-29T15:21:20.907Z,3.50
2017-08-29T15:23:48.591Z,3.70
2017-08-29T15:26:16.214Z,3.53
2017-08-29T15:28:43.805Z,3.43
2017-08-29T15:31:11.418Z,3.20
2017-08-29T15:33:39.004Z,3.20
2017-08-29T15:36:06.645Z,3.60
2017-08-29T15:38:34.237Z,3.97
2017-08-29T15:41:01.863Z,3.50
2017-08-29T15:43:29.446Z,3.30
2017-08-29T15:45:57.409Z,3.67
2017-08-29T15:48:24.997Z,3.40
2017-08-29T15:50:52.586Z,3.40
2017-08-29T15:53:20.189Z,3.30
2017-08-29T15:55:47.788Z,4.10
2017-08-29T15:58:15.384Z,3.10
2017-08-29T16:00:43.103Z,3.70
2017-08-29T16:03:10.720Z,3.77
2017-08-29T16:05:38.347Z,3.50
2017-08-29T16:08:05.961Z,3.70
2017-08-29T16:10:33.561Z,3.43
2017-08-29T16:13:01.232Z,4.17
2017-08-29T16:15:28.829Z,4.00
2017-08-29T16:17:56.710Z,5.07
2017-08-29T16:20:24.308Z,4.17
2017-08-29T16:22:51.906Z,3.80
2017-08-29T16:25:19.613Z,4.27
2017-08-29T16:27:47.261Z,4.10
2017-08-29T16:30:14.886Z,4.17
2017-08-29T16:32:42.485Z,4.30
2017-08-29T16:35:10.243Z,4.20
2017-08-29T16:37:37.857Z,3.80
2017-08-29T16:40:05.781Z,4.17
2017-08-29T16:42:33.475Z,4.30
2017-08-29T16:45:01.084Z,4.80
2017-08-29T16:47:28.711Z,4.30
2017-08-29T16:49:56.450Z,3.93
2017-08-29T16:52:24.107Z,4.30
2017-08-29T16:54:51.725Z,4.47
2017-08-29T16:57:20.491Z,3.97
2017-08-29T16:59:48.089Z,4.00
2017-08-29T17:02:15.728Z,3.87
2017-08-29T17:04:43.345Z,4.37
2017-08-29T17:07:11.059Z,4.47
2017-08-29T17:09:38.640Z,4.60
2017-08-29T17:12:06.384Z,4.50
2017-08-29T17:14:34.009Z,4.60
2017-08-29T17:17:01.951Z,4.60
2017-08-29T17:19:29.573Z,4.70
2017-08-29T17:21:57.183Z,4.63
2017-08-29T17:24:25.044Z,4.87
2017-08-29T17:26:52.648Z,4.80
2017-08-29T17:29:20.263Z,4.80
2017-08-29T17:31:47.846Z,3.90
2017-08-29T17:34:15.628Z,4.53
2017-08-29T17:36:43.230Z,3.90
2017-08-29T17:39:11.202Z,5.60
2017-08-29T17:41:38.836Z,4.57
2017-08-29T17:44:06.434Z,4.67
2017-08-29T17:46:34.073Z,4.10
2017-08-29T17:49:01.685Z,4.70
2017-08-29T17:51:29.313Z,4.00
2017-08-29T17:53:56.954Z,4.57
2017-08-29T17:56:24.674Z,6.47
2017-08-29T17:58:52.288Z,4.83
2017-08-29T18:01:19.915Z,4.77
2017-08-29T18:03:47.551Z,3.97
2017-08-29T18:06:15.457Z,5.00
2017-08-29T18:08:43.059Z,4.50
2017-08-29T18:11:10.685Z,4.63
2017-08-29T18:13:38.306Z,4.50
2017-08-29T18:16:05.898Z,5.17
2017-08-29T18:18:33.510Z,14.50
2017-08-29T18:21:01.194Z,15.50
2017-08-29T18:23:28.804Z,7.03
2017-08-29T18:25:56.524Z,6.87
2017-08-29T18:28:24.787Z,6.77
2017-08-29T18:30:52.378Z,6.00
2017-08-29T18:33:20.158Z,7.07
2017-08-29T18:35:47.794Z,7.53
2017-08-29T18:38:15.678Z,7.07
2017-08-29T18:40:43.285Z,8.17
2017-08-29T18:43:10.912Z,8.47
2017-08-29T18:45:38.542Z,8.20
2017-08-29T18:48:06.199Z,8.10
2017-08-29T18:50:33.799Z,8.93
2017-08-29T18:53:01.396Z,7.67
2017-08-29T18:55:29.045Z,7.60
2017-08-29T18:57:56.655Z,7.03
2017-08-29T19:00:24.280Z,7.50
2017-08-29T19:02:52.063Z,6.87
2017-08-29T19:05:20.046Z,6.20
2017-08-29T19:07:47.662Z,6.20
2017-08-29T19:10:15.348Z,5.87
2017-08-29T19:12:43.043Z,6.13
2017-08-29T19:15:10.634Z,6.20
2017-08-29T19:17:38.288Z,5.00
2017-08-29T19:20:05.965Z,5.90
2017-08-29T19:22:33.571Z,6.10
2017-08-29T19:25:01.181Z,6.63
2017-08-29T19:27:28.846Z,6.90
2017-08-29T19:29:56.451Z,6.03
2017-08-29T19:32:24.642Z,6.30
2017-08-29T19:34:52.275Z,6.33
2017-08-29T19:37:19.912Z,6.77
2017-08-29T19:39:47.522Z,6.20
2017-08-29T19:42:15.198Z,5.70
2017-08-29T19:44:43.017Z,6.50
2017-08-29T19:47:10.638Z,5.97
2017-08-29T19:49:38.289Z,5.47
2017-08-29T19:52:05.946Z,5.77
2017-08-29T19:54:33.646Z,5.57
2017-08-29T19:57:01.235Z,5.43
2017-08-29T19:59:29.135Z,6.10
2017-08-29T20:01:56.835Z,6.33
2017-08-29T20:04:24.506Z,6.53
2017-08-29T20:06:52.218Z,6.30
2017-08-29T20:09:19.921Z,6.83
2017-08-29T20:11:47.532Z,5.57
2017-08-29T20:14:15.104Z,5.97
2017-08-29T20:16:42.725Z,6.30
2017-08-29T20:19:10.498Z,6.33
2017-08-29T20:21:38.135Z,6.00
2017-08-29T20:24:05.895Z,6.90
2017-08-29T20:26:33.519Z,6.20
2017-08-29T20:29:01.200Z,6.23
2017-08-29T20:31:29.098Z,6.30
2017-08-29T20:33:56.838Z,6.70
2017-08-29T20:36:24.449Z,5.70
2017-08-29T20:38:52.083Z,6.50
2017-08-29T20:41:19.694Z,6.37
2017-08-29T20:43:47.326Z,5.70
2017-08-29T20:46:15.112Z,5.80
2017-08-29T20:48:42.728Z,5.60
2017-08-29T20:51:10.431Z,6.60
2017-08-29T20:53:38.064Z,6.20
2017-08-29T20:56:05.645Z,6.50
2017-08-29T20:58:33.606Z,7.00
2017-08-29T21:01:01.232Z,6.90
2017-08-29T21:03:29.012Z,7.30
2017-08-29T21:05:56.630Z,6.27
2017-08-29T21:08:24.220Z,5.90
2017-08-29T21:10:51.877Z,6.47
2017-08-29T21:13:19.550Z,7.00
2017-08-29T21:15:47.180Z,5.83
2017-08-29T21:18:14.814Z,6.60
2017-08-29T21:20:42.436Z,6.60
2017-08-29T21:23:10.054Z,6.07
2017-08-29T21:25:37.754Z,5.87
2017-08-29T21:28:05.341Z,6.13
2017-08-29T21:30:33.328Z,6.80
2017-08-29T21:33:00.925Z,6.23
2017-08-29T21:35:28.528Z,7.03
2017-08-29T21:37:56.550Z,7.03
2017-08-29T21:40:24.153Z,7.10
2017-08-29T21:42:51.773Z,6.70
2017-08-29T21:45:19.387Z,6.90
2017-08-29T21:47:47.012Z,7.10
2017-08-29T21:50:14.617Z,6.70
2017-08-29T21:52:42.215Z,7.10
2017-08-29T21:55:09.822Z,7.47
2017-08-29T21:57:37.950Z,6.60
2017-08-29T22:00:05.702Z,6.43
2017-08-29T22:02:33.309Z,6.60
2017-08-29T22:05:00.996Z,6.20
2017-08-29T22:07:28.584Z,6.60
2017-08-29T22:09:56.200Z,5.93
2017-08-29T22:12:23.840Z,6.77
2017-08-29T22:14:51.429Z,6.30
2017-08-29T22:17:19.139Z,5.97
2017-08-29T22:19:46.751Z,7.37
2017-08-29T22:22:14.323Z,7.40
2017-08-29T22:24:42.227Z,7.63
2017-08-29T22:27:09.829Z,6.50
2017-08-29T22:29:37.425Z,6.43
2017-08-29T22:32:05.126Z,6.30
2017-08-29T22:34:32.725Z,6.33
2017-08-29T22:37:00.460Z,7.13
2017-08-29T22:39:28.041Z,6.30
2017-08-29T22:41:55.660Z,6.20
2017-08-29T22:44:23.264Z,6.90
2017-08-29T22:46:50.888Z,6.17
2017-08-29T22:49:18.481Z,6.90
2017-08-29T22:51:46.078Z,6.93
2017-08-29T22:54:13.658Z,6.30
2017-08-29T22:56:41.274Z,6.43
2017-08-29T22:59:08.829Z,6.73
2017-08-29T23:01:36.816Z,7.00
2017-08-29T23:04:04.389Z,6.70
2017-08-29T23:06:32.007Z,6.87
2017-08-29T23:08:59.624Z,6.13
2017-08-29T23:11:27.226Z,6.70
2017-08-29T23:13:54.850Z,6.10
2017-08-29T23:16:22.448Z,6.30
2017-08-29T23:18:50.010Z,6.30
2017-08-29T23:21:17.617Z,6.90
2017-08-29T23:23:45.299Z,6.80
2017-08-29T23:26:12.875Z,7.23
2017-08-29T23:28:40.485Z,7.13
2017-08-29T23:31:08.066Z,6.90
2017-08-29T23:33:35.676Z,7.27
2017-08-29T23:36:03.286Z,7.00
2017-08-29T23:38:31.565Z,7.80
2017-08-29T23:40:59.235Z,7.40
2017-08-29T23:43:26.819Z,6.87
2017-08-29T23:45:54.434Z,7.90
2017-08-29T23:48:22.130Z,7.67
2017-08-29T23:50:49.741Z,7.20
2017-08-29T23:53:17.320Z,6.97
2017-08-29T23:55:44.963Z,8.30
2017-08-29T23:58:12.556Z,8.30
